createdAt,value
2018-02-20T00:02:14.078Z,60.60
2018-02-20T00:04:41.639Z,59.10
2018-02-20T00:07:09.931Z,64.32
2018-02-20T00:09:37.514Z,65.25
2018-02-20T00:12:05.119Z,62.00
2018-02-20T00:14:32.698Z,60.67
2018-02-20T00:17:00.271Z,65.12
2018-02-20T00:19:27.863Z,65.85
2018-02-20T00:21:56.220Z,65.07
2018-02-20T00:24:23.896Z,67.70
2018-02-20T00:26:51.464Z,64.85
2018-02-20T00:29:19.807Z,66.50
2018-02-20T00:31:47.311Z,69.18
2018-02-20T00:34:15.562Z,67.82
2018-02-20T00:36:43.055Z,66.95
2018-02-20T00:39:11.308Z,66.32
2018-02-20T00:41:38.888Z,63.83
2018-02-20T00:44:07.148Z,69.05
2018-02-20T00:46:34.724Z,66.35
2018-02-20T00:49:03.000Z,68.57
2018-02-20T00:51:31.251Z,69.62
2018-02-20T00:53:58.742Z,76.28
2018-02-20T00:56:27.011Z,69.75
2018-02-20T00:58:55.282Z,73.15
2018-02-20T01:01:23.531Z,79.05
2018-02-20T01:03:51.200Z,78.07
2018-02-20T01:06:18.696Z,70.32
2018-02-20T01:08:46.208Z,72.85
2018-02-20T01:11:13.700Z,75.50
2018-02-20T01:13:41.981Z,80.62
2018-02-20T01:16:10.229Z,84.30
2018-02-20T01:18:37.719Z,77.82
2018-02-20T01:21:05.984Z,77.20
2018-02-20T01:23:34.246Z,76.85
2018-02-20T01:26:01.754Z,78.22
2018-02-20T01:28:29.298Z,82.35
2018-02-20T01:33:48.351Z,84.70
2018-02-20T01:36:16.609Z,80.78
2018-02-20T01:38:44.108Z,88.85
2018-02-20T01:41:11.595Z,75.97
2018-02-20T01:43:39.105Z,81.45
2018-02-20T01:46:07.361Z,87.43
2018-02-20T01:48:34.848Z,79.55
2018-02-20T01:51:07.946Z,81.32
2018-02-20T01:53:36.210Z,78.90
2018-02-20T01:56:04.478Z,87.82
2018-02-20T01:58:33.662Z,85.20
2018-02-20T02:01:01.985Z,81.70
2018-02-20T02:03:29.487Z,81.72
2018-02-20T02:05:57.092Z,87.43
2018-02-20T02:08:25.347Z,86.20
2018-02-20T02:10:53.646Z,85.35
2018-02-20T02:13:21.914Z,84.75
2018-02-20T02:15:50.178Z,82.78
2018-02-20T02:18:18.456Z,88.62
2018-02-20T02:20:46.728Z,89.78
2018-02-20T02:23:14.259Z,83.35
2018-02-20T02:25:41.770Z,89.87
2018-02-20T02:28:10.052Z,92.22
2018-02-20T02:30:37.561Z,91.70
2018-02-20T02:33:05.058Z,94.82
2018-02-20T02:35:32.664Z,89.15
2018-02-20T02:38:00.156Z,88.18
2018-02-20T02:40:27.651Z,90.85
2018-02-20T02:42:55.148Z,98.10
2018-02-20T02:45:22.652Z,87.75
2018-02-20T02:47:50.925Z,88.10
2018-02-20T02:50:19.213Z,89.30
2018-02-20T02:52:46.727Z,90.35
2018-02-20T02:55:14.333Z,87.07
2018-02-20T02:57:41.888Z,86.15
2018-02-20T03:00:10.168Z,90.07
2018-02-20T03:02:38.445Z,86.75
2018-02-20T03:05:06.003Z,89.65
2018-02-20T03:07:34.280Z,92.88
2018-02-20T03:10:02.577Z,87.97
2018-02-20T03:12:30.117Z,92.05
2018-02-20T03:14:58.395Z,78.93
2018-02-20T03:17:25.898Z,87.85
2018-02-20T03:19:53.389Z,93.57
2018-02-20T03:22:21.690Z,88.68
2018-02-20T03:24:49.211Z,82.90
2018-02-20T03:27:16.814Z,88.18
2018-02-20T03:29:44.306Z,93.00
2018-02-20T03:32:11.806Z,92.47
2018-02-20T03:34:40.065Z,84.80
2018-02-20T03:37:07.569Z,96.75
2018-02-20T03:39:35.051Z,89.07
2018-02-20T03:42:02.557Z,91.80
2018-02-20T03:44:30.826Z,97.07
2018-02-20T03:46:58.328Z,86.87
2018-02-20T03:49:25.873Z,93.25
2018-02-20T03:51:53.386Z,91.78
2018-02-20T03:54:20.989Z,95.03
2018-02-20T03:56:48.502Z,89.20
2018-02-20T03:59:16.114Z,97.72
2018-02-20T04:01:43.669Z,97.12
2018-02-20T04:04:11.228Z,102.97
2018-02-20T04:06:39.577Z,89.65
2018-02-20T04:09:07.069Z,101.47
2018-02-20T04:11:34.622Z,101.80
2018-02-20T04:14:02.893Z,94.35
2018-02-20T04:16:31.156Z,100.55
2018-02-20T04:18:59.420Z,96.43
2018-02-20T04:21:26.929Z,96.22
2018-02-20T04:23:54.468Z,94.37
2018-02-20T04:26:22.729Z,93.62
2018-02-20T04:28:51.021Z,94.43
2018-02-20T04:31:19.397Z,97.65
2018-02-20T04:33:47.658Z,103.78
2018-02-20T04:36:15.961Z,97.97
2018-02-20T04:38:43.520Z,101.10
2018-02-20T04:41:11.014Z,99.40
2018-02-20T04:43:38.512Z,98.05
2018-02-20T04:46:06.088Z,101.90
2018-02-20T04:48:34.366Z,101.53
2018-02-20T04:51:01.865Z,95.75
2018-02-20T04:53:29.399Z,93.05
2018-02-20T04:55:56.892Z,96.47
2018-02-20T04:58:24.500Z,94.50
2018-02-20T05:00:52.787Z,97.93
2018-02-20T05:03:20.340Z,98.32
2018-02-20T05:05:49.398Z,97.80
2018-02-20T05:08:16.920Z,108.72
2018-02-20T05:10:44.465Z,96.43
2018-02-20T05:13:11.963Z,95.35
2018-02-20T05:15:39.582Z,94.75
2018-02-20T05:18:07.073Z,94.25
2018-02-20T05:20:34.580Z,97.75
2018-02-20T05:23:02.877Z,88.60
2018-02-20T05:25:30.432Z,94.37
2018-02-20T05:27:57.936Z,95.50
2018-02-20T05:30:25.434Z,92.95
2018-02-20T05:32:53.709Z,92.75
2018-02-20T05:35:21.977Z,98.18
2018-02-20T05:37:49.535Z,93.90
2018-02-20T05:40:17.125Z,93.22
2018-02-20T05:42:44.641Z,96.00
2018-02-20T05:45:12.923Z,88.18
2018-02-20T05:47:40.414Z,98.82
2018-02-20T05:50:08.300Z,92.32
2018-02-20T05:52:35.795Z,94.15
2018-02-20T05:55:03.296Z,96.95
2018-02-20T05:57:30.858Z,89.65
2018-02-20T05:59:58.419Z,88.18
2018-02-20T06:02:25.910Z,90.47
2018-02-20T06:04:53.438Z,85.93
2018-02-20T06:07:20.960Z,89.95
2018-02-20T06:09:48.445Z,94.18
2018-02-20T06:12:16.749Z,93.12
2018-02-20T06:14:44.250Z,88.78
2018-02-20T06:17:11.752Z,91.87
2018-02-20T06:19:39.237Z,85.47
2018-02-20T06:22:06.805Z,90.40
2018-02-20T06:24:34.306Z,94.97
2018-02-20T06:27:02.568Z,97.22
2018-02-20T06:29:30.154Z,98.50
2018-02-20T06:31:58.427Z,97.57
2018-02-20T06:34:26.704Z,93.22
2018-02-20T06:36:55.003Z,85.43
2018-02-20T06:39:22.506Z,86.28
2018-02-20T06:41:50.101Z,88.28
2018-02-20T06:44:18.383Z,87.25
2018-02-20T06:46:46.684Z,96.63
2018-02-20T06:49:14.214Z,95.47
2018-02-20T06:51:42.474Z,90.40
2018-02-20T06:54:10.051Z,80.45
2018-02-20T06:56:38.345Z,96.93
2018-02-20T06:59:05.855Z,87.95
2018-02-20T07:01:33.343Z,92.78
2018-02-20T07:04:01.624Z,92.80
2018-02-20T07:06:29.876Z,96.05
2018-02-20T07:08:57.406Z,91.03
2018-02-20T07:11:24.901Z,96.32
2018-02-20T07:13:52.407Z,88.75
2018-02-20T07:16:19.904Z,94.95
2018-02-20T07:18:47.472Z,99.85
2018-02-20T07:21:15.050Z,87.53
2018-02-20T07:23:43.429Z,88.05
2018-02-20T07:26:10.984Z,90.57
2018-02-20T07:28:39.241Z,79.28
2018-02-20T07:31:07.567Z,89.35
2018-02-20T07:33:35.086Z,96.32
2018-02-20T07:36:03.345Z,89.97
2018-02-20T07:38:30.846Z,105.65
2018-02-20T07:40:58.364Z,105.95
2018-02-20T07:43:25.912Z,145.70
2018-02-20T07:45:53.418Z,241.07
2018-02-20T07:48:20.944Z,142.37
2018-02-20T07:50:48.437Z,80.68
2018-02-20T07:53:16.832Z,77.05
2018-02-20T07:55:44.373Z,92.20
2018-02-20T07:58:12.650Z,93.65
2018-02-20T08:00:40.162Z,88.85
2018-02-20T08:03:08.472Z,81.60
2018-02-20T08:05:36.760Z,76.53
2018-02-20T08:08:04.301Z,77.60
2018-02-20T08:10:32.083Z,87.88
2018-02-20T08:13:00.367Z,80.05
2018-02-20T08:15:28.185Z,83.93
2018-02-20T08:17:55.676Z,80.38
2018-02-20T08:20:23.937Z,81.43
2018-02-20T08:22:51.482Z,75.70
2018-02-20T08:25:18.980Z,77.87
2018-02-20T08:27:48.110Z,78.75
2018-02-20T08:30:15.668Z,72.95
2018-02-20T08:32:43.204Z,74.18
2018-02-20T08:35:10.695Z,73.95
2018-02-20T08:37:38.191Z,75.65
2018-02-20T08:40:05.718Z,73.55
2018-02-20T08:42:33.268Z,75.18
2018-02-20T08:45:00.810Z,69.90
2018-02-20T08:47:28.305Z,68.53
2018-02-20T08:49:55.787Z,79.40
2018-02-20T08:52:23.307Z,70.80
2018-02-20T08:54:50.802Z,72.60
2018-02-20T08:57:19.064Z,67.65
2018-02-20T08:59:46.693Z,77.43
2018-02-20T09:02:14.189Z,83.18
2018-02-20T09:04:42.520Z,71.50
2018-02-20T09:07:10.161Z,70.50
2018-02-20T09:09:40.400Z,71.32
2018-02-20T09:12:07.886Z,67.00
2018-02-20T09:14:35.384Z,71.62
2018-02-20T09:17:03.678Z,70.18
2018-02-20T09:19:31.168Z,73.60
2018-02-20T09:21:58.683Z,74.30
2018-02-20T09:24:26.952Z,74.18
2018-02-20T09:26:54.477Z,74.67
2018-02-20T09:29:21.975Z,65.35
2018-02-20T09:31:50.244Z,69.23
2018-02-20T09:34:18.541Z,68.57
2018-02-20T09:36:46.103Z,70.75
2018-02-20T09:39:13.666Z,65.22
2018-02-20T09:41:43.874Z,71.43
2018-02-20T09:44:11.437Z,69.07
2018-02-20T09:46:39.688Z,67.13
2018-02-20T09:49:07.299Z,71.97
2018-02-20T09:51:34.801Z,71.03
2018-02-20T09:54:02.879Z,72.53
2018-02-20T09:56:30.401Z,72.97
2018-02-20T09:58:57.957Z,65.37
2018-02-20T10:01:25.492Z,70.90
2018-02-20T10:03:53.130Z,62.47
2018-02-20T10:06:21.471Z,72.50
2018-02-20T10:08:48.989Z,69.17
2018-02-20T10:11:16.483Z,71.90
2018-02-20T10:13:43.971Z,69.97
2018-02-20T10:16:11.528Z,67.37
2018-02-20T10:18:39.833Z,74.93
2018-02-20T10:21:08.103Z,74.47
2018-02-20T10:23:36.373Z,66.10
2018-02-20T10:26:03.944Z,64.30
2018-02-20T10:28:32.220Z,72.83
2018-02-20T10:30:59.792Z,66.23
2018-02-20T10:33:27.339Z,69.83
2018-02-20T10:35:55.657Z,69.77
2018-02-20T10:38:23.140Z,71.70
2018-02-20T10:40:50.676Z,64.73
2018-02-20T10:43:18.202Z,71.70
2018-02-20T10:45:45.700Z,73.87
2018-02-20T10:48:13.256Z,68.17
2018-02-20T10:50:40.764Z,68.97
2018-02-20T10:53:09.054Z,65.77
2018-02-20T10:55:36.615Z,67.17
2018-02-20T10:58:04.994Z,62.60
2018-02-20T11:00:32.547Z,67.80
2018-02-20T11:03:00.805Z,72.07
2018-02-20T11:05:29.101Z,64.67
2018-02-20T11:07:57.410Z,64.93
2018-02-20T11:10:24.910Z,62.20
2018-02-20T11:12:52.496Z,63.20
2018-02-20T11:15:20.752Z,63.07
2018-02-20T11:17:48.261Z,64.30
2018-02-20T11:20:15.751Z,63.93
2018-02-20T11:22:43.273Z,63.83
2018-02-20T11:25:10.805Z,63.23
2018-02-20T11:27:39.058Z,59.87
2018-02-20T11:30:06.577Z,60.13
2018-02-20T11:32:34.065Z,63.90
2018-02-20T11:35:01.626Z,63.80
2018-02-20T11:37:29.241Z,62.87
2018-02-20T11:39:56.736Z,61.70
2018-02-20T11:42:24.234Z,63.07
2018-02-20T11:44:52.543Z,60.13
2018-02-20T11:47:20.048Z,60.40
2018-02-20T11:49:47.788Z,61.20
2018-02-20T11:52:15.325Z,58.83
2018-02-20T11:54:42.817Z,58.80
2018-02-20T11:57:10.416Z,57.10
2018-02-20T11:59:38.707Z,59.43
2018-02-20T12:02:06.284Z,61.20
2018-02-20T12:04:34.145Z,59.77
2018-02-20T12:07:01.711Z,59.30
2018-02-20T12:09:29.255Z,57.63
2018-02-20T12:11:56.847Z,59.07
2018-02-20T12:14:24.399Z,59.70
2018-02-20T12:16:51.891Z,66.57
2018-02-20T12:19:19.407Z,57.67
2018-02-20T12:21:46.946Z,58.80
2018-02-20T12:24:14.471Z,54.87
2018-02-20T12:26:41.976Z,52.87
2018-02-20T12:29:09.478Z,51.40
2018-02-20T12:31:36.978Z,51.23
2018-02-20T12:34:04.559Z,49.30
2018-02-20T12:36:32.099Z,53.33
2018-02-20T12:38:59.593Z,49.37
2018-02-20T12:41:27.124Z,46.77
2018-02-20T12:43:54.620Z,49.07
2018-02-20T12:46:22.163Z,47.47
2018-02-20T12:48:49.671Z,49.37
2018-02-20T12:51:17.931Z,45.83
2018-02-20T12:53:45.514Z,45.43
2018-02-20T12:56:13.783Z,46.07
2018-02-20T12:58:48.804Z,44.23
2018-02-20T13:01:16.357Z,40.17
2018-02-20T13:03:43.839Z,42.83
2018-02-20T13:06:12.109Z,43.13
2018-02-20T13:08:40.374Z,43.87
2018-02-20T13:11:07.875Z,42.70
2018-02-20T13:13:35.408Z,41.07
2018-02-20T13:16:03.673Z,40.93
2018-02-20T13:18:31.168Z,40.80
2018-02-20T13:20:58.674Z,40.07
2018-02-20T13:23:26.168Z,38.57
2018-02-20T13:25:56.523Z,38.47
2018-02-20T13:28:24.008Z,34.33
2018-02-20T13:30:52.707Z,36.07
2018-02-20T13:33:20.232Z,38.03
2018-02-20T13:35:47.761Z,34.23
2018-02-20T13:38:16.025Z,32.67
2018-02-20T13:40:44.296Z,32.17
2018-02-20T13:43:11.841Z,33.73
2018-02-20T13:45:39.337Z,31.60
2018-02-20T13:48:06.829Z,33.60
2018-02-20T13:50:34.368Z,30.60
2018-02-20T13:53:01.869Z,33.50
2018-02-20T13:55:29.376Z,29.33
2018-02-20T13:57:56.934Z,29.00
2018-02-20T14:00:24.824Z,29.13
2018-02-20T14:02:52.338Z,30.57
2018-02-20T14:05:19.913Z,32.37
2018-02-20T14:07:47.431Z,32.70
2018-02-20T14:10:14.985Z,31.37
2018-02-20T14:12:42.503Z,31.77
2018-02-20T14:15:10.037Z,32.23
2018-02-20T14:17:38.292Z,32.23
2018-02-20T14:20:06.570Z,30.27
2018-02-20T14:22:34.073Z,31.63
2018-02-20T14:25:01.614Z,29.27
2018-02-20T14:27:29.876Z,32.40
2018-02-20T14:29:57.380Z,33.33
2018-02-20T14:32:24.873Z,27.87
2018-02-20T14:34:52.397Z,32.37
2018-02-20T14:37:19.929Z,30.57
2018-02-20T14:39:48.217Z,31.00
2018-02-20T14:42:15.769Z,30.87
2018-02-20T14:44:43.323Z,32.43
2018-02-20T14:47:11.596Z,30.10
2018-02-20T14:49:39.878Z,30.73
2018-02-20T14:52:08.145Z,31.27
2018-02-20T14:54:35.694Z,31.60
2018-02-20T14:57:03.209Z,30.70
2018-02-20T14:59:30.695Z,28.47
2018-02-20T15:01:58.209Z,28.97
2018-02-20T15:04:25.704Z,31.73
2018-02-20T15:06:53.215Z,30.47
2018-02-20T15:09:20.708Z,31.80
2018-02-20T15:11:48.717Z,31.10
2018-02-20T15:14:16.996Z,29.73
2018-02-20T15:16:45.395Z,31.90
2018-02-20T15:19:12.959Z,34.73
2018-02-20T15:21:40.539Z,31.63
2018-02-20T15:24:08.064Z,32.10
2018-02-20T15:26:36.410Z,34.03
2018-02-20T15:29:03.911Z,33.80
2018-02-20T15:31:31.468Z,35.37
2018-02-20T15:33:59.756Z,36.07
2018-02-20T15:36:27.288Z,34.73
2018-02-20T15:38:55.551Z,47.07
2018-02-20T15:41:23.059Z,37.23
2018-02-20T15:43:50.605Z,36.70
2018-02-20T15:46:18.152Z,35.57
2018-02-20T15:48:46.416Z,36.63
2018-02-20T15:51:14.693Z,34.47
2018-02-20T15:53:42.950Z,33.03
2018-02-20T15:56:11.229Z,35.97
2018-02-20T15:58:38.821Z,38.23
2018-02-20T16:01:06.323Z,45.33
2018-02-20T16:03:34.470Z,38.00
2018-02-20T16:06:02.840Z,37.97
2018-02-20T16:08:30.336Z,36.73
2018-02-20T16:10:57.852Z,41.97
2018-02-20T16:13:25.354Z,44.47
2018-02-20T16:15:55.428Z,37.97
2018-02-20T16:18:22.932Z,40.00
2018-02-20T16:20:50.448Z,40.80
2018-02-20T16:23:17.968Z,37.22
2018-02-20T16:25:47.002Z,44.63
2018-02-20T16:28:14.611Z,46.25
2018-02-20T16:30:42.216Z,44.95
2018-02-20T16:33:11.051Z,45.53
2018-02-20T16:35:38.607Z,44.88
2018-02-20T16:38:06.120Z,41.25
2018-02-20T16:40:33.702Z,41.17
2018-02-20T16:43:01.366Z,42.78
2018-02-20T16:45:28.885Z,45.08
2018-02-20T16:47:57.157Z,47.47
2018-02-20T16:50:25.603Z,44.58
2018-02-20T16:52:53.113Z,40.97
2018-02-20T16:55:21.412Z,43.30
2018-02-20T16:57:48.921Z,41.72
2018-02-20T17:00:16.444Z,43.30
2018-02-20T17:02:43.936Z,43.28
2018-02-20T17:05:11.664Z,39.20
2018-02-20T17:07:39.203Z,41.60
2018-02-20T17:10:06.720Z,42.30
2018-02-20T17:12:34.232Z,40.15
2018-02-20T17:15:01.740Z,39.65
2018-02-20T17:17:29.349Z,41.17
2018-02-20T17:19:56.940Z,41.08
2018-02-20T17:22:24.494Z,40.70
2018-02-20T17:24:52.039Z,39.08
2018-02-20T17:27:19.561Z,39.80
2018-02-20T17:29:48.100Z,40.67
2018-02-20T17:32:15.616Z,43.90
2018-02-20T17:34:43.918Z,41.13
2018-02-20T17:37:12.193Z,42.47
2018-02-20T17:39:39.750Z,42.33
2018-02-20T17:42:07.262Z,40.22
2018-02-20T17:44:34.954Z,47.30
2018-02-20T17:47:02.459Z,42.28
2018-02-20T17:49:29.986Z,42.28
2018-02-20T17:51:57.552Z,42.40
2018-02-20T17:54:25.214Z,40.83
2018-02-20T17:56:52.706Z,43.63
2018-02-20T17:59:20.256Z,43.75
2018-02-20T18:01:47.768Z,40.50
2018-02-20T18:04:15.277Z,36.83
2018-02-20T18:06:42.772Z,43.55
2018-02-20T18:09:11.060Z,44.85
2018-02-20T18:11:38.554Z,44.40
2018-02-20T18:14:06.079Z,42.85
2018-02-20T18:16:33.597Z,40.33
2018-02-20T18:19:01.107Z,42.28
2018-02-20T18:21:28.607Z,44.92
2018-02-20T18:23:56.100Z,38.67
2018-02-20T18:26:24.397Z,37.88
2018-02-20T18:28:51.973Z,41.70
2018-02-20T18:31:19.504Z,39.47
2018-02-20T18:33:47.804Z,42.10
2018-02-20T18:36:15.358Z,186.25
2018-02-20T18:38:42.939Z,161.30
2018-02-20T18:41:10.456Z,313.87
2018-02-20T18:43:38.793Z,413.08
2018-02-20T18:46:06.445Z,499.85
2018-02-20T18:48:34.100Z,218.20
2018-02-20T18:51:02.315Z,345.08
2018-02-20T18:53:29.808Z,232.50
2018-02-20T18:55:57.313Z,263.50
2018-02-20T18:58:24.831Z,204.43
2018-02-20T19:00:52.386Z,163.02
2018-02-20T19:03:19.897Z,196.12
2018-02-20T19:05:47.501Z,62.70
2018-02-20T19:08:15.040Z,79.62
2018-02-20T19:10:43.300Z,92.57
2018-02-20T19:13:10.788Z,81.28
2018-02-20T19:15:39.078Z,105.03
2018-02-20T19:18:06.657Z,67.72
2018-02-20T19:20:34.161Z,53.35
2018-02-20T19:23:01.657Z,57.05
2018-02-20T19:25:29.163Z,71.10
2018-02-20T19:27:56.658Z,48.80
2018-02-20T19:30:24.934Z,50.78
2018-02-20T19:32:53.214Z,43.75
2018-02-20T19:35:21.475Z,44.78
2018-02-20T19:37:49.738Z,45.72
2018-02-20T19:40:18.239Z,47.62
2018-02-20T19:42:46.501Z,42.55
2018-02-20T19:45:15.534Z,48.78
2018-02-20T19:47:43.081Z,47.03
2018-02-20T19:50:11.355Z,43.75
2018-02-20T19:52:39.751Z,47.67
2018-02-20T19:55:07.264Z,40.70
2018-02-20T19:57:34.747Z,48.35
2018-02-20T20:00:03.650Z,46.65
2018-02-20T20:02:31.139Z,43.97
2018-02-20T20:04:58.683Z,45.88
2018-02-20T20:07:26.592Z,50.10
2018-02-20T20:09:54.090Z,49.65
2018-02-20T20:12:22.367Z,42.75
2018-02-20T20:14:49.877Z,47.45
2018-02-20T20:17:17.660Z,48.72
2018-02-20T20:19:45.191Z,43.95
2018-02-20T20:22:12.822Z,46.65
2018-02-20T20:24:41.094Z,47.47
2018-02-20T20:27:08.680Z,45.55
2018-02-20T20:29:36.236Z,44.58
2018-02-20T20:32:03.756Z,43.20
2018-02-20T20:34:32.016Z,49.70
2018-02-20T20:37:01.025Z,42.28
2018-02-20T20:39:29.789Z,40.90
2018-02-20T20:41:57.380Z,46.25
2018-02-20T20:44:25.662Z,42.28
2018-02-20T20:46:53.176Z,45.92
2018-02-20T20:49:20.687Z,47.17
2018-02-20T20:51:48.179Z,47.42
2018-02-20T20:54:15.668Z,41.03
2018-02-20T20:56:44.053Z,48.70
2018-02-20T20:59:12.335Z,44.47
2018-02-20T21:01:40.614Z,46.78
2018-02-20T21:04:09.368Z,42.75
2018-02-20T21:06:36.969Z,47.90
2018-02-20T21:09:05.250Z,45.45
2018-02-20T21:11:33.524Z,44.60
2018-02-20T21:14:01.790Z,42.35
2018-02-20T21:16:29.486Z,47.10
2018-02-20T21:18:57.109Z,149.35
2018-02-20T21:21:25.469Z,52.35
2018-02-20T21:23:52.933Z,43.50
2018-02-20T21:26:20.524Z,44.90
2018-02-20T21:28:48.800Z,43.65
2018-02-20T21:31:17.092Z,45.40
2018-02-20T21:33:45.413Z,45.95
2018-02-20T21:36:15.072Z,44.58
2018-02-20T21:38:43.566Z,49.85
2018-02-20T21:41:11.797Z,49.35
2018-02-20T21:43:39.288Z,47.55
2018-02-20T21:46:07.408Z,44.10
2018-02-20T21:48:35.973Z,47.00
2018-02-20T21:51:03.686Z,47.30
2018-02-20T21:53:31.960Z,47.15
2018-02-20T21:56:00.248Z,46.47
2018-02-20T21:58:27.813Z,49.50
2018-02-20T22:00:56.078Z,48.50
2018-02-20T22:03:24.375Z,45.20
2018-02-20T22:05:51.937Z,51.72
2018-02-20T22:08:19.454Z,47.10
2018-02-20T22:10:47.050Z,46.05
2018-02-20T22:13:14.544Z,49.75
2018-02-20T22:15:42.039Z,49.97
2018-02-20T22:18:10.899Z,45.72
2018-02-20T22:20:38.417Z,48.83
2018-02-20T22:23:06.016Z,47.78
2018-02-20T22:25:33.562Z,48.28
2018-02-20T22:28:01.092Z,47.60
2018-02-20T22:30:28.649Z,43.58
2018-02-20T22:32:56.934Z,47.33
2018-02-20T22:35:24.505Z,49.63
2018-02-20T22:37:52.057Z,48.80
2018-02-20T22:40:19.586Z,47.30
2018-02-20T22:42:47.845Z,49.00
2018-02-20T22:45:15.347Z,50.47
2018-02-20T22:47:42.836Z,48.92
2018-02-20T22:50:11.129Z,51.95
2018-02-20T22:52:38.617Z,47.15
2018-02-20T22:55:06.913Z,50.53
2018-02-20T22:57:34.461Z,45.33
2018-02-20T23:00:02.740Z,47.08
2018-02-20T23:02:31.037Z,50.47
2018-02-20T23:04:58.550Z,48.10
2018-02-20T23:07:26.144Z,47.80
2018-02-20T23:09:54.833Z,49.95
2018-02-20T23:12:22.332Z,50.10
2018-02-20T23:14:49.973Z,51.67
2018-02-20T23:17:17.475Z,47.28
2018-02-20T23:19:45.482Z,45.95
2018-02-20T23:22:12.982Z,49.08
2018-02-20T23:24:40.482Z,51.45
2018-02-20T23:27:08.743Z,54.75
2018-02-20T23:29:36.248Z,53.28
2018-02-20T23:32:03.805Z,49.80
2018-02-20T23:34:31.638Z,53.38
2018-02-20T23:36:59.901Z,48.80
2018-02-20T23:39:28.183Z,50.55
2018-02-20T23:41:55.688Z,49.60
2018-02-20T23:44:23.228Z,49.50
2018-02-20T23:46:51.265Z,51.35
2018-02-20T23:49:18.883Z,46.30
2018-02-20T23:51:46.373Z,50.10
2018-02-20T23:54:13.881Z,47.85
2018-02-20T23:56:41.376Z,47.08
2018-02-20T23:59:08.891Z,44.28
